Portada
METAR-TAF:

METAR-TAF

Aeroports :

Mary, Turkmenistan

latitud: 37-36-24N, longitud: 061-54-05E, altitud: 222 m

Observació

L'informe es va fer fa 58 minuts, a les 23:00 UTC
Vent 6 kt del Nord
Temperatura 0°C
Humitat 40%
Pressió 1031 hPa
Visibilitat: 6000 m
Cel ennuvolat a una alçada de 10000 ft

METAR: UTAM 212300Z 36006KT 6000 BKN100 M00/M12 Q1031 R88/CLRD70 NOSIG

Hora: 04:58 (23:58 UTC)

Pronòstic

L'informe es va fer fa 1 hora i 28 minuts, a les 22:30 UTC
Pronòstic vàlid del 22 a les 00 UTC al 22 a les 24 UTC
Vent 4 kt amb direcció variable
Visibilitat: 5000 m
Cel ennuvolat a una alçada de 2000 ft
Temporalment
l' 22 a les 00 UTC al 22 a les 06 UTC
Vent 10 kt del Nord
Visibilitat: 2000 m
Núvols disperses a una alçada de 2000 ft, Cumulonimbus.
boirina
Evolucionant progressivament
l' 22 a les 12 UTC al 22 a les 14 UTC
Vent 12 kt del Nord/Nord-Est

TAF: UTAM 212230Z 2200/2224 VRB04KT 5000 BKN020 TEMPO 2200/2206 35010KT 2000 BR SCT020CB BECMG 2212/2214 03012KT

Observacions i pronòstics meteorològics de més de 4000 aeroports (METAR i TAF).

Les estacions disponibles són els punts grocs i vermells al mapa.

Posi el ratolí al punt desitjat per veure el nom de l'estació.

Feu clic per veure les observacions i els pronòstics meteorològics.

Per canviar el mapa: feu clic els botons verds amb una creu de color negre per apropar; al botó verd amb un guió per allunyar la imatge; o en les fletxes verdes per a mapes adjacents.


METAR-TAF: